Pagrindinis puslapis
METAR-TAF:

METAR-TAF

Oro uostai :

Eliazihas, Turkija

platuma: 38-36N, ilguma: 039-17E, Aukštis: 902 m

Dabartinis oras

Ataskaita buvo paskelbta 33 minutes, ne 17:50 UTC
Vėjas 6 kt iš Vakarų
Temperatūra 23°C
Drėgmė 47%
Slėgis 1012 hPa
Matomumas 10 km arba daugiau
Mažai debesys ne aukštis 3000 ft, Liūtiniai kamuoliniai debesys.
Su prošvaistėmis ne aukštis 3500 ft

METAR: LTCA 151750Z 28006KT 9999 FEW030CB BKN035 23/11 Q1012 RETSRA TEMPO 35015G25KT -TSRA

Laikas: 21:23 (18:23 UTC)

Prognozė

Ataskaita buvo paskelbta 1 valandą ir 43 minutes, ne 16:40 UTC
Prognozė galioja nuo 15 metu 18 UTC su 16 metu 03 UTC
Vėjas 2 kt nuo kintamojo kryptimis
Matomumas 10 km arba daugiau
Išsisklaidę debesys ne aukštis 3500 ft
Laikinai
nuo 15 metu 18 UTC su 15 metu 20 UTC
Išsisklaidę debesys ne aukštis 3000 ft, Liūtiniai kamuoliniai debesys.
Su prošvaistėmis ne aukštis 3300 ft
perkūnija, lietus

TAF: LTCA 151640Z 1518/1603 VRB02KT 9999 SCT035 TEMPO 1518/1520 -TSRA SCT030CB BKN033

Orai ataskaitas ir orų prognozės (METAR, TAF).

turimą stotys yra geltonos ir raudonos taškus žemėlapyje.

Perkelti pele per norėdami pamatyti stoties vardą.

Tada spustelėkite, norėdami matyti oro stebėjimo ir prognozės.

Norėdami pakeisti žemėlapį: spustelėkite ant žalios mygtukų su juodo kryžiaus žemyn,; žalią mygtuką su brūkšneliu, jei norite nutolinti; arba žalių rodyklių gretimoms žemėlapius.


METAR-TAF: